Terminal Aerodrome Forecast
Issued by NWS Bismarck, ND

Home | Current Version | Previous Version | Text Only | Print | Product List | Glossary Off
Versions: 1 2 3 4 5 6 7 8 9 10 11 12 13 14 15 16 17

000
FTUS43 KBIS 191736
TAFBIS
TAF
KBIS 191736Z 1918/2018 03009KT P6SM OVC090
     FM192100 03008KT P6SM -SN SCT030 OVC060
     FM200300 01006KT 1 1/2SM -SN SCT015 OVC025
     FM200900 35006KT 1 1/2SM -SN SCT010 OVC020
     FM201200 33006KT P6SM OVC010
     FM201600 30006KT P6SM BKN025=

USA.gov is the U.S. government's official web portal to all federal, state and local government web resources and services.